sensor_id;sensor_type;location;lat;lon;timestamp;P1;durP1;ratioP1;P2;durP2;ratioP2
21239;SDS011;10778;48.962;9.018;2023-07-16T00:00:26;1.65;;;1.40;;
21239;SDS011;10778;48.962;9.018;2023-07-16T00:02:54;3.38;;;1.50;;
21239;SDS011;10778;48.962;9.018;2023-07-16T00:05:20;3.42;;;1.30;;
21239;SDS011;10778;48.962;9.018;2023-07-16T00:07:47;2.83;;;1.50;;
21239;SDS011;10778;48.962;9.018;2023-07-16T00:10:13;2.83;;;1.40;;
21239;SDS011;10778;48.962;9.018;2023-07-16T00:12:39;2.95;;;1.40;;
21239;SDS011;10778;48.962;9.018;2023-07-16T00:15:05;2.78;;;1.40;;
21239;SDS011;10778;48.962;9.018;2023-07-16T00:17:35;1.92;;;1.38;;
21239;SDS011;10778;48.962;9.018;2023-07-16T00:20:02;1.80;;;1.48;;
21239;SDS011;10778;48.962;9.018;2023-07-16T00:22:28;1.60;;;1.50;;
21239;SDS011;10778;48.962;9.018;2023-07-16T00:24:54;1.80;;;1.35;;
21239;SDS011;10778;48.962;9.018;2023-07-16T00:27:20;3.80;;;1.60;;
21239;SDS011;10778;48.962;9.018;2023-07-16T00:29:46;3.38;;;1.60;;
21239;SDS011;10778;48.962;9.018;2023-07-16T00:32:12;2.03;;;1.60;;
21239;SDS011;10778;48.962;9.018;2023-07-16T00:34:38;1.95;;;1.50;;
21239;SDS011;10778;48.962;9.018;2023-07-16T00:37:04;2.90;;;1.40;;
21239;SDS011;10778;48.962;9.018;2023-07-16T00:39:30;1.88;;;1.40;;
21239;SDS011;10778;48.962;9.018;2023-07-16T00:41:56;1.45;;;1.33;;
21239;SDS011;10778;48.962;9.018;2023-07-16T00:44:22;2.15;;;1.40;;
21239;SDS011;10778;48.962;9.018;2023-07-16T00:46:49;1.40;;;1.30;;
21239;SDS011;10778;48.962;9.018;2023-07-16T00:49:15;4.00;;;1.50;;
21239;SDS011;10778;48.962;9.018;2023-07-16T00:51:42;2.25;;;1.20;;
21239;SDS011;10778;48.962;9.018;2023-07-16T00:54:08;3.60;;;1.60;;
21239;SDS011;10778;48.962;9.018;2023-07-16T00:56:34;3.92;;;1.67;;
21239;SDS011;10778;48.962;9.018;2023-07-16T00:59:02;3.13;;;1.50;;
21239;SDS011;10778;48.962;9.018;2023-07-16T01:01:28;2.97;;;1.70;;
21239;SDS011;10778;48.962;9.018;2023-07-16T01:03:54;1.77;;;1.40;;
21239;SDS011;10778;48.962;9.018;2023-07-16T01:06:55;3.40;;;1.40;;
21239;SDS011;10778;48.962;9.018;2023-07-16T01:09:16;2.55;;;1.55;;
21239;SDS011;10778;48.962;9.018;2023-07-16T01:11:44;2.83;;;1.50;;
21239;SDS011;10778;48.962;9.018;2023-07-16T01:14:12;4.20;;;1.48;;
21239;SDS011;10778;48.962;9.018;2023-07-16T01:16:40;2.63;;;1.50;;
21239;SDS011;10778;48.962;9.018;2023-07-16T01:19:06;5.53;;;1.52;;
21239;SDS011;10778;48.962;9.018;2023-07-16T01:30:29;3.97;;;1.40;;
21239;SDS011;10778;48.962;9.018;2023-07-16T01:32:56;2.90;;;1.20;;
21239;SDS011;10778;48.962;9.018;2023-07-16T01:35:23;2.25;;;1.30;;
21239;SDS011;10778;48.962;9.018;2023-07-16T01:37:49;2.15;;;1.40;;
21239;SDS011;10778;48.962;9.018;2023-07-16T01:40:15;3.20;;;1.27;;
21239;SDS011;10778;48.962;9.018;2023-07-16T01:42:41;3.03;;;1.60;;
21239;SDS011;10778;48.962;9.018;2023-07-16T01:45:09;2.00;;;1.45;;
21239;SDS011;10778;48.962;9.018;2023-07-16T01:50:20;2.53;;;1.48;;
21239;SDS011;10778;48.962;9.018;2023-07-16T01:52:46;2.78;;;1.20;;
21239;SDS011;10778;48.962;9.018;2023-07-16T01:55:12;4.80;;;1.65;;
21239;SDS011;10778;48.962;9.018;2023-07-16T01:57:38;2.83;;;1.55;;
21239;SDS011;10778;48.962;9.018;2023-07-16T02:00:04;5.00;;;1.33;;
21239;SDS011;10778;48.962;9.018;2023-07-16T02:02:45;1.50;;;1.10;;
21239;SDS011;10778;48.962;9.018;2023-07-16T02:05:14;3.67;;;1.35;;
21239;SDS011;10778;48.962;9.018;2023-07-16T02:07:40;3.00;;;1.40;;
21239;SDS011;10778;48.962;9.018;2023-07-16T02:10:06;3.92;;;1.40;;
21239;SDS011;10778;48.962;9.018;2023-07-16T02:12:33;4.93;;;1.60;;
21239;SDS011;10778;48.962;9.018;2023-07-16T02:14:59;2.28;;;1.30;;
21239;SDS011;10778;48.962;9.018;2023-07-16T02:17:25;3.55;;;1.50;;
21239;SDS011;10778;48.962;9.018;2023-07-16T02:19:51;3.67;;;1.50;;
21239;SDS011;10778;48.962;9.018;2023-07-16T02:22:17;2.72;;;1.40;;
21239;SDS011;10778;48.962;9.018;2023-07-16T02:24:43;4.03;;;1.55;;
21239;SDS011;10778;48.962;9.018;2023-07-16T02:27:09;1.70;;;1.08;;
21239;SDS011;10778;48.962;9.018;2023-07-16T02:29:35;4.78;;;1.50;;
21239;SDS011;10778;48.962;9.018;2023-07-16T02:32:01;4.80;;;1.50;;
21239;SDS011;10778;48.962;9.018;2023-07-16T02:34:27;4.20;;;1.30;;
21239;SDS011;10778;48.962;9.018;2023-07-16T02:36:53;3.00;;;1.52;;
21239;SDS011;10778;48.962;9.018;2023-07-16T02:39:19;3.33;;;1.35;;
21239;SDS011;10778;48.962;9.018;2023-07-16T02:41:45;2.03;;;1.50;;
21239;SDS011;10778;48.962;9.018;2023-07-16T02:44:11;2.65;;;1.30;;
21239;SDS011;10778;48.962;9.018;2023-07-16T02:46:37;4.53;;;1.50;;
21239;SDS011;10778;48.962;9.018;2023-07-16T02:49:03;1.73;;;1.35;;
21239;SDS011;10778;48.962;9.018;2023-07-16T02:51:30;3.03;;;1.50;;
21239;SDS011;10778;48.962;9.018;2023-07-16T02:53:56;2.28;;;1.52;;
21239;SDS011;10778;48.962;9.018;2023-07-16T02:56:22;2.38;;;1.65;;
21239;SDS011;10778;48.962;9.018;2023-07-16T02:58:48;1.70;;;1.33;;
21239;SDS011;10778;48.962;9.018;2023-07-16T03:01:15;4.32;;;1.90;;
21239;SDS011;10778;48.962;9.018;2023-07-16T03:03:41;3.47;;;1.60;;
21239;SDS011;10778;48.962;9.018;2023-07-16T03:06:07;3.55;;;1.70;;
21239;SDS011;10778;48.962;9.018;2023-07-16T03:08:33;3.45;;;1.52;;
21239;SDS011;10778;48.962;9.018;2023-07-16T03:11:00;4.22;;;1.60;;
21239;SDS011;10778;48.962;9.018;2023-07-16T03:13:26;4.30;;;1.67;;
21239;SDS011;10778;48.962;9.018;2023-07-16T03:15:52;2.55;;;1.60;;
21239;SDS011;10778;48.962;9.018;2023-07-16T03:18:18;3.10;;;1.63;;
21239;SDS011;10778;48.962;9.018;2023-07-16T03:20:45;1.83;;;1.42;;
21239;SDS011;10778;48.962;9.018;2023-07-16T03:23:11;5.95;;;1.70;;
21239;SDS011;10778;48.962;9.018;2023-07-16T03:25:37;3.67;;;1.60;;
21239;SDS011;10778;48.962;9.018;2023-07-16T03:28:03;3.92;;;1.48;;
21239;SDS011;10778;48.962;9.018;2023-07-16T03:30:31;4.85;;;1.63;;
21239;SDS011;10778;48.962;9.018;2023-07-16T03:32:57;3.42;;;1.95;;
21239;SDS011;10778;48.962;9.018;2023-07-16T03:35:25;3.78;;;1.55;;
21239;SDS011;10778;48.962;9.018;2023-07-16T03:37:51;4.97;;;1.70;;
21239;SDS011;10778;48.962;9.018;2023-07-16T03:40:22;3.80;;;1.75;;
21239;SDS011;10778;48.962;9.018;2023-07-16T03:42:52;3.90;;;1.90;;
21239;SDS011;10778;48.962;9.018;2023-07-16T03:45:19;4.88;;;1.77;;
21239;SDS011;10778;48.962;9.018;2023-07-16T03:47:45;4.20;;;1.60;;
21239;SDS011;10778;48.962;9.018;2023-07-16T03:50:12;3.75;;;1.90;;
21239;SDS011;10778;48.962;9.018;2023-07-16T03:52:38;5.72;;;1.80;;
21239;SDS011;10778;48.962;9.018;2023-07-16T03:55:04;8.07;;;1.90;;
21239;SDS011;10778;48.962;9.018;2023-07-16T03:57:30;4.43;;;1.92;;
21239;SDS011;10778;48.962;9.018;2023-07-16T03:59:56;6.40;;;2.00;;
21239;SDS011;10778;48.962;9.018;2023-07-16T04:02:23;4.88;;;2.00;;
21239;SDS011;10778;48.962;9.018;2023-07-16T04:04:50;4.40;;;1.77;;
21239;SDS011;10778;48.962;9.018;2023-07-16T04:07:17;6.38;;;1.83;;
21239;SDS011;10778;48.962;9.018;2023-07-16T04:09:43;7.22;;;2.08;;
21239;SDS011;10778;48.962;9.018;2023-07-16T04:12:09;4.68;;;1.67;;
21239;SDS011;10778;48.962;9.018;2023-07-16T04:14:35;7.97;;;2.05;;
21239;SDS011;10778;48.962;9.018;2023-07-16T04:17:01;6.00;;;1.75;;
21239;SDS011;10778;48.962;9.018;2023-07-16T04:19:27;6.97;;;1.88;;
21239;SDS011;10778;48.962;9.018;2023-07-16T04:21:53;4.15;;;1.63;;
21239;SDS011;10778;48.962;9.018;2023-07-16T04:24:19;9.80;;;2.22;;
21239;SDS011;10778;48.962;9.018;2023-07-16T04:26:45;5.28;;;1.75;;
21239;SDS011;10778;48.962;9.018;2023-07-16T04:29:11;6.90;;;2.20;;
21239;SDS011;10778;48.962;9.018;2023-07-16T04:31:37;8.48;;;2.30;;
21239;SDS011;10778;48.962;9.018;2023-07-16T04:34:03;6.93;;;2.00;;
21239;SDS011;10778;48.962;9.018;2023-07-16T04:36:29;7.20;;;2.05;;
21239;SDS011;10778;48.962;9.018;2023-07-16T04:38:55;7.65;;;2.00;;
21239;SDS011;10778;48.962;9.018;2023-07-16T04:41:21;10.10;;;2.10;;
21239;SDS011;10778;48.962;9.018;2023-07-16T04:43:48;4.95;;;1.90;;
21239;SDS011;10778;48.962;9.018;2023-07-16T04:46:14;5.47;;;2.03;;
21239;SDS011;10778;48.962;9.018;2023-07-16T04:48:41;6.75;;;2.00;;
21239;SDS011;10778;48.962;9.018;2023-07-16T04:51:07;7.70;;;1.90;;
21239;SDS011;10778;48.962;9.018;2023-07-16T04:53:33;10.73;;;2.20;;
21239;SDS011;10778;48.962;9.018;2023-07-16T04:55:59;9.40;;;2.20;;
21239;SDS011;10778;48.962;9.018;2023-07-16T04:58:25;8.07;;;2.05;;
21239;SDS011;10778;48.962;9.018;2023-07-16T05:00:51;5.70;;;1.95;;
21239;SDS011;10778;48.962;9.018;2023-07-16T05:03:17;6.30;;;2.13;;
21239;SDS011;10778;48.962;9.018;2023-07-16T05:05:43;5.47;;;1.83;;
21239;SDS011;10778;48.962;9.018;2023-07-16T05:08:09;7.47;;;2.20;;
21239;SDS011;10778;48.962;9.018;2023-07-16T05:10:35;9.43;;;2.17;;
21239;SDS011;10778;48.962;9.018;2023-07-16T05:13:01;8.35;;;2.33;;
21239;SDS011;10778;48.962;9.018;2023-07-16T05:15:29;7.03;;;2.10;;
21239;SDS011;10778;48.962;9.018;2023-07-16T05:17:57;4.75;;;1.98;;
21239;SDS011;10778;48.962;9.018;2023-07-16T05:20:23;4.15;;;2.08;;
21239;SDS011;10778;48.962;9.018;2023-07-16T05:22:50;6.15;;;1.80;;
21239;SDS011;10778;48.962;9.018;2023-07-16T05:25:16;7.13;;;2.00;;
21239;SDS011;10778;48.962;9.018;2023-07-16T05:27:42;7.22;;;2.13;;
21239;SDS011;10778;48.962;9.018;2023-07-16T05:30:08;6.03;;;2.00;;
21239;SDS011;10778;48.962;9.018;2023-07-16T05:32:35;7.45;;;2.30;;
21239;SDS011;10778;48.962;9.018;2023-07-16T05:35:01;8.90;;;2.55;;
21239;SDS011;10778;48.962;9.018;2023-07-16T05:37:27;5.72;;;1.85;;
21239;SDS011;10778;48.962;9.018;2023-07-16T05:39:53;5.22;;;1.85;;
21239;SDS011;10778;48.962;9.018;2023-07-16T05:42:19;9.95;;;2.25;;
21239;SDS011;10778;48.962;9.018;2023-07-16T05:44:47;8.73;;;2.15;;
21239;SDS011;10778;48.962;9.018;2023-07-16T05:47:13;7.90;;;2.20;;
21239;SDS011;10778;48.962;9.018;2023-07-16T05:49:39;7.68;;;2.15;;
21239;SDS011;10778;48.962;9.018;2023-07-16T05:52:05;6.43;;;2.13;;
21239;SDS011;10778;48.962;9.018;2023-07-16T05:54:31;8.40;;;2.30;;
21239;SDS011;10778;48.962;9.018;2023-07-16T05:56:57;9.82;;;2.33;;
21239;SDS011;10778;48.962;9.018;2023-07-16T05:59:23;7.95;;;2.13;;
21239;SDS011;10778;48.962;9.018;2023-07-16T06:01:49;8.15;;;2.05;;
21239;SDS011;10778;48.962;9.018;2023-07-16T06:04:15;9.57;;;2.08;;
21239;SDS011;10778;48.962;9.018;2023-07-16T06:06:41;6.25;;;2.00;;
21239;SDS011;10778;48.962;9.018;2023-07-16T06:09:07;6.25;;;2.20;;
21239;SDS011;10778;48.962;9.018;2023-07-16T06:11:33;6.45;;;2.00;;
21239;SDS011;10778;48.962;9.018;2023-07-16T06:13:59;7.00;;;2.20;;
21239;SDS011;10778;48.962;9.018;2023-07-16T06:16:25;7.47;;;2.20;;
21239;SDS011;10778;48.962;9.018;2023-07-16T06:18:51;6.45;;;1.90;;
21239;SDS011;10778;48.962;9.018;2023-07-16T06:21:17;8.05;;;2.13;;
21239;SDS011;10778;48.962;9.018;2023-07-16T06:23:43;8.00;;;2.10;;
21239;SDS011;10778;48.962;9.018;2023-07-16T06:26:09;6.38;;;2.10;;
21239;SDS011;10778;48.962;9.018;2023-07-16T06:28:35;8.05;;;2.17;;
21239;SDS011;10778;48.962;9.018;2023-07-16T06:31:01;11.60;;;2.15;;
21239;SDS011;10778;48.962;9.018;2023-07-16T06:33:27;5.43;;;1.85;;
21239;SDS011;10778;48.962;9.018;2023-07-16T06:35:54;6.88;;;2.00;;
21239;SDS011;10778;48.962;9.018;2023-07-16T06:38:19;7.43;;;2.20;;
21239;SDS011;10778;48.962;9.018;2023-07-16T06:40:46;6.43;;;2.00;;
21239;SDS011;10778;48.962;9.018;2023-07-16T06:43:16;5.90;;;2.15;;
21239;SDS011;10778;48.962;9.018;2023-07-16T06:45:42;6.28;;;1.92;;
21239;SDS011;10778;48.962;9.018;2023-07-16T06:48:09;5.15;;;2.20;;
21239;SDS011;10778;48.962;9.018;2023-07-16T06:50:35;7.30;;;2.17;;
21239;SDS011;10778;48.962;9.018;2023-07-16T06:53:01;5.78;;;1.83;;
21239;SDS011;10778;48.962;9.018;2023-07-16T06:55:27;7.20;;;2.10;;
21239;SDS011;10778;48.962;9.018;2023-07-16T06:57:53;5.50;;;1.63;;
21239;SDS011;10778;48.962;9.018;2023-07-16T07:00:19;6.05;;;2.00;;
21239;SDS011;10778;48.962;9.018;2023-07-16T07:02:45;5.40;;;1.73;;
21239;SDS011;10778;48.962;9.018;2023-07-16T07:05:11;4.85;;;1.92;;
21239;SDS011;10778;48.962;9.018;2023-07-16T07:07:37;4.68;;;1.75;;
21239;SDS011;10778;48.962;9.018;2023-07-16T07:10:03;6.13;;;1.90;;
21239;SDS011;10778;48.962;9.018;2023-07-16T07:12:29;5.68;;;2.10;;
21239;SDS011;10778;48.962;9.018;2023-07-16T07:15:00;6.75;;;1.80;;
21239;SDS011;10778;48.962;9.018;2023-07-16T07:17:26;6.75;;;2.10;;
21239;SDS011;10778;48.962;9.018;2023-07-16T07:19:52;8.05;;;2.10;;
21239;SDS011;10778;48.962;9.018;2023-07-16T07:22:18;7.30;;;2.10;;
21239;SDS011;10778;48.962;9.018;2023-07-16T07:24:44;5.90;;;1.90;;
21239;SDS011;10778;48.962;9.018;2023-07-16T07:27:10;6.32;;;1.70;;
21239;SDS011;10778;48.962;9.018;2023-07-16T07:29:36;5.32;;;2.00;;
21239;SDS011;10778;48.962;9.018;2023-07-16T07:32:02;4.95;;;1.88;;
21239;SDS011;10778;48.962;9.018;2023-07-16T07:34:28;5.45;;;1.85;;
21239;SDS011;10778;48.962;9.018;2023-07-16T07:36:54;5.93;;;1.77;;
21239;SDS011;10778;48.962;9.018;2023-07-16T07:39:20;6.22;;;2.00;;
21239;SDS011;10778;48.962;9.018;2023-07-16T07:41:46;7.57;;;1.85;;
21239;SDS011;10778;48.962;9.018;2023-07-16T07:44:12;6.35;;;2.00;;
21239;SDS011;10778;48.962;9.018;2023-07-16T07:46:38;8.27;;;2.13;;
21239;SDS011;10778;48.962;9.018;2023-07-16T07:49:04;7.22;;;1.80;;
21239;SDS011;10778;48.962;9.018;2023-07-16T07:51:30;5.07;;;1.90;;
21239;SDS011;10778;48.962;9.018;2023-07-16T07:53:56;4.75;;;1.75;;
21239;SDS011;10778;48.962;9.018;2023-07-16T07:56:22;6.38;;;1.90;;
21239;SDS011;10778;48.962;9.018;2023-07-16T07:58:48;7.38;;;2.08;;
21239;SDS011;10778;48.962;9.018;2023-07-16T08:01:14;4.72;;;1.80;;
21239;SDS011;10778;48.962;9.018;2023-07-16T08:03:40;6.95;;;1.92;;
21239;SDS011;10778;48.962;9.018;2023-07-16T08:06:06;5.82;;;1.90;;
21239;SDS011;10778;48.962;9.018;2023-07-16T08:08:32;7.85;;;2.28;;
21239;SDS011;10778;48.962;9.018;2023-07-16T08:10:58;6.30;;;2.00;;
21239;SDS011;10778;48.962;9.018;2023-07-16T08:13:24;6.65;;;2.10;;
21239;SDS011;10778;48.962;9.018;2023-07-16T08:15:50;7.38;;;1.80;;
21239;SDS011;10778;48.962;9.018;2023-07-16T08:18:16;5.35;;;1.92;;
21239;SDS011;10778;48.962;9.018;2023-07-16T08:20:42;6.03;;;1.95;;
21239;SDS011;10778;48.962;9.018;2023-07-16T08:23:08;6.07;;;2.10;;
21239;SDS011;10778;48.962;9.018;2023-07-16T08:25:34;7.00;;;1.90;;
21239;SDS011;10778;48.962;9.018;2023-07-16T08:28:02;7.43;;;2.28;;
21239;SDS011;10778;48.962;9.018;2023-07-16T08:30:28;6.53;;;2.25;;
21239;SDS011;10778;48.962;9.018;2023-07-16T08:32:54;5.30;;;2.00;;
21239;SDS011;10778;48.962;9.018;2023-07-16T08:35:20;6.97;;;1.90;;
21239;SDS011;10778;48.962;9.018;2023-07-16T08:37:46;7.03;;;1.90;;
21239;SDS011;10778;48.962;9.018;2023-07-16T08:40:12;5.13;;;2.00;;
21239;SDS011;10778;48.962;9.018;2023-07-16T08:42:39;6.93;;;2.10;;
21239;SDS011;10778;48.962;9.018;2023-07-16T08:45:11;8.20;;;2.30;;
21239;SDS011;10778;48.962;9.018;2023-07-16T08:47:37;5.22;;;2.08;;
21239;SDS011;10778;48.962;9.018;2023-07-16T08:50:04;6.10;;;2.15;;
21239;SDS011;10778;48.962;9.018;2023-07-16T08:52:30;5.93;;;1.88;;
21239;SDS011;10778;48.962;9.018;2023-07-16T08:54:56;5.97;;;2.08;;
21239;SDS011;10778;48.962;9.018;2023-07-16T08:57:22;7.95;;;2.10;;
21239;SDS011;10778;48.962;9.018;2023-07-16T08:59:49;6.55;;;1.65;;
21239;SDS011;10778;48.962;9.018;2023-07-16T09:02:19;6.85;;;1.95;;
21239;SDS011;10778;48.962;9.018;2023-07-16T09:04:46;6.30;;;1.92;;
21239;SDS011;10778;48.962;9.018;2023-07-16T09:07:14;6.43;;;1.98;;
21239;SDS011;10778;48.962;9.018;2023-07-16T09:09:40;5.35;;;2.00;;
21239;SDS011;10778;48.962;9.018;2023-07-16T09:12:10;6.55;;;2.30;;
21239;SDS011;10778;48.962;9.018;2023-07-16T09:14:38;7.55;;;2.00;;
21239;SDS011;10778;48.962;9.018;2023-07-16T09:17:07;6.40;;;2.10;;
21239;SDS011;10778;48.962;9.018;2023-07-16T09:19:33;6.60;;;2.00;;
21239;SDS011;10778;48.962;9.018;2023-07-16T09:21:59;5.05;;;1.90;;
21239;SDS011;10778;48.962;9.018;2023-07-16T09:24:25;3.58;;;1.67;;
21239;SDS011;10778;48.962;9.018;2023-07-16T09:26:52;5.80;;;2.33;;
21239;SDS011;10778;48.962;9.018;2023-07-16T09:29:21;4.60;;;2.10;;
21239;SDS011;10778;48.962;9.018;2023-07-16T09:34:23;5.30;;;2.20;;
21239;SDS011;10778;48.962;9.018;2023-07-16T09:36:52;5.75;;;2.20;;
21239;SDS011;10778;48.962;9.018;2023-07-16T09:39:18;6.53;;;1.80;;
21239;SDS011;10778;48.962;9.018;2023-07-16T09:41:46;4.85;;;2.00;;
21239;SDS011;10778;48.962;9.018;2023-07-16T09:44:13;7.15;;;2.08;;
21239;SDS011;10778;48.962;9.018;2023-07-16T09:46:39;4.45;;;1.98;;
21239;SDS011;10778;48.962;9.018;2023-07-16T09:49:06;6.75;;;1.95;;
21239;SDS011;10778;48.962;9.018;2023-07-16T09:51:34;4.05;;;1.80;;
21239;SDS011;10778;48.962;9.018;2023-07-16T09:54:01;5.72;;;1.90;;
21239;SDS011;10778;48.962;9.018;2023-07-16T09:56:31;5.63;;;2.00;;
21239;SDS011;10778;48.962;9.018;2023-07-16T09:59:16;3.15;;;1.60;;
21239;SDS011;10778;48.962;9.018;2023-07-16T10:01:45;4.95;;;1.90;;
21239;SDS011;10778;48.962;9.018;2023-07-16T10:04:16;4.20;;;1.70;;
21239;SDS011;10778;48.962;9.018;2023-07-16T10:06:58;4.85;;;1.80;;
21239;SDS011;10778;48.962;9.018;2023-07-16T10:09:58;7.15;;;2.22;;
21239;SDS011;10778;48.962;9.018;2023-07-16T10:12:20;4.32;;;1.90;;
21239;SDS011;10778;48.962;9.018;2023-07-16T10:14:53;8.07;;;2.10;;
21239;SDS011;10778;48.962;9.018;2023-07-16T10:17:24;4.93;;;1.80;;
21239;SDS011;10778;48.962;9.018;2023-07-16T10:20:09;3.00;;;1.60;;
21239;SDS011;10778;48.962;9.018;2023-07-16T10:25:08;4.72;;;2.10;;
21239;SDS011;10778;48.962;9.018;2023-07-16T10:27:44;5.18;;;2.28;;
21239;SDS011;10778;48.962;9.018;2023-07-16T10:30:11;6.10;;;2.00;;
21239;SDS011;10778;48.962;9.018;2023-07-16T10:32:38;3.97;;;2.00;;
21239;SDS011;10778;48.962;9.018;2023-07-16T10:35:04;3.45;;;1.90;;
21239;SDS011;10778;48.962;9.018;2023-07-16T10:37:32;5.28;;;2.10;;
21239;SDS011;10778;48.962;9.018;2023-07-16T10:39:58;5.00;;;2.00;;
21239;SDS011;10778;48.962;9.018;2023-07-16T10:42:26;4.80;;;1.95;;
21239;SDS011;10778;48.962;9.018;2023-07-16T10:44:53;4.45;;;1.77;;
21239;SDS011;10778;48.962;9.018;2023-07-16T10:47:24;3.60;;;2.03;;
21239;SDS011;10778;48.962;9.018;2023-07-16T10:49:55;5.93;;;1.95;;
21239;SDS011;10778;48.962;9.018;2023-07-16T10:52:21;5.15;;;1.80;;
21239;SDS011;10778;48.962;9.018;2023-07-16T10:54:48;5.25;;;1.98;;
21239;SDS011;10778;48.962;9.018;2023-07-16T10:57:15;3.72;;;1.85;;
21239;SDS011;10778;48.962;9.018;2023-07-16T10:59:42;4.40;;;1.85;;
21239;SDS011;10778;48.962;9.018;2023-07-16T11:02:12;3.83;;;1.80;;
21239;SDS011;10778;48.962;9.018;2023-07-16T11:04:39;3.47;;;1.80;;
21239;SDS011;10778;48.962;9.018;2023-07-16T11:09:34;4.03;;;1.95;;
21239;SDS011;10778;48.962;9.018;2023-07-16T11:12:07;4.07;;;1.88;;
21239;SDS011;10778;48.962;9.018;2023-07-16T11:14:34;4.85;;;2.00;;
21239;SDS011;10778;48.962;9.018;2023-07-16T11:17:04;3.10;;;1.77;;
21239;SDS011;10778;48.962;9.018;2023-07-16T11:19:33;3.10;;;1.80;;
21239;SDS011;10778;48.962;9.018;2023-07-16T11:21:59;5.35;;;1.98;;
21239;SDS011;10778;48.962;9.018;2023-07-16T11:24:26;3.03;;;1.90;;
21239;SDS011;10778;48.962;9.018;2023-07-16T11:26:56;3.92;;;1.95;;
21239;SDS011;10778;48.962;9.018;2023-07-16T11:29:25;5.00;;;2.05;;
21239;SDS011;10778;48.962;9.018;2023-07-16T11:31:52;5.70;;;2.10;;
21239;SDS011;10778;48.962;9.018;2023-07-16T11:34:21;5.28;;;1.80;;
21239;SDS011;10778;48.962;9.018;2023-07-16T11:36:48;6.28;;;2.08;;
21239;SDS011;10778;48.962;9.018;2023-07-16T11:39:15;3.72;;;2.00;;
21239;SDS011;10778;48.962;9.018;2023-07-16T11:41:41;4.68;;;2.00;;
21239;SDS011;10778;48.962;9.018;2023-07-16T11:44:07;6.97;;;2.03;;
21239;SDS011;10778;48.962;9.018;2023-07-16T11:46:34;4.47;;;1.90;;
21239;SDS011;10778;48.962;9.018;2023-07-16T11:49:00;3.65;;;1.80;;
21239;SDS011;10778;48.962;9.018;2023-07-16T11:51:26;4.70;;;2.08;;
21239;SDS011;10778;48.962;9.018;2023-07-16T11:53:55;3.90;;;1.90;;
21239;SDS011;10778;48.962;9.018;2023-07-16T11:56:22;4.63;;;1.90;;
21239;SDS011;10778;48.962;9.018;2023-07-16T11:58:49;5.80;;;1.92;;
21239;SDS011;10778;48.962;9.018;2023-07-16T12:01:15;3.00;;;1.80;;
21239;SDS011;10778;48.962;9.018;2023-07-16T12:03:41;5.00;;;1.98;;
21239;SDS011;10778;48.962;9.018;2023-07-16T12:06:08;5.80;;;1.98;;
21239;SDS011;10778;48.962;9.018;2023-07-16T12:08:34;3.35;;;1.90;;
21239;SDS011;10778;48.962;9.018;2023-07-16T12:11:00;5.78;;;2.13;;
21239;SDS011;10778;48.962;9.018;2023-07-16T12:13:26;4.40;;;2.20;;
21239;SDS011;10778;48.962;9.018;2023-07-16T12:15:52;6.40;;;1.92;;
21239;SDS011;10778;48.962;9.018;2023-07-16T12:18:18;3.95;;;2.00;;
21239;SDS011;10778;48.962;9.018;2023-07-16T12:20:44;6.10;;;1.90;;
21239;SDS011;10778;48.962;9.018;2023-07-16T12:23:10;4.68;;;1.90;;
21239;SDS011;10778;48.962;9.018;2023-07-16T12:25:36;4.20;;;1.90;;
21239;SDS011;10778;48.962;9.018;2023-07-16T12:28:02;5.40;;;2.00;;
21239;SDS011;10778;48.962;9.018;2023-07-16T12:30:28;4.15;;;2.05;;
21239;SDS011;10778;48.962;9.018;2023-07-16T12:32:55;5.32;;;1.85;;
21239;SDS011;10778;48.962;9.018;2023-07-16T12:35:21;4.72;;;1.92;;
21239;SDS011;10778;48.962;9.018;2023-07-16T12:37:47;6.05;;;2.38;;
21239;SDS011;10778;48.962;9.018;2023-07-16T12:40:12;4.13;;;1.95;;
21239;SDS011;10778;48.962;9.018;2023-07-16T12:42:38;4.00;;;2.20;;
21239;SDS011;10778;48.962;9.018;2023-07-16T12:45:05;4.75;;;1.98;;
21239;SDS011;10778;48.962;9.018;2023-07-16T12:47:32;3.65;;;1.90;;
21239;SDS011;10778;48.962;9.018;2023-07-16T12:49:58;4.78;;;1.83;;
21239;SDS011;10778;48.962;9.018;2023-07-16T12:52:24;5.05;;;2.10;;
21239;SDS011;10778;48.962;9.018;2023-07-16T12:54:50;4.95;;;1.88;;
21239;SDS011;10778;48.962;9.018;2023-07-16T12:57:16;5.20;;;1.90;;
21239;SDS011;10778;48.962;9.018;2023-07-16T12:59:43;3.33;;;1.90;;
21239;SDS011;10778;48.962;9.018;2023-07-16T13:02:09;4.30;;;2.13;;
21239;SDS011;10778;48.962;9.018;2023-07-16T13:04:35;3.30;;;1.70;;
21239;SDS011;10778;48.962;9.018;2023-07-16T13:07:01;2.97;;;1.92;;
21239;SDS011;10778;48.962;9.018;2023-07-16T13:09:27;4.22;;;2.00;;
21239;SDS011;10778;48.962;9.018;2023-07-16T13:11:53;3.28;;;2.10;;
21239;SDS011;10778;48.962;9.018;2023-07-16T13:14:19;4.43;;;2.10;;
21239;SDS011;10778;48.962;9.018;2023-07-16T13:16:44;3.92;;;2.00;;
21239;SDS011;10778;48.962;9.018;2023-07-16T13:19:11;3.60;;;1.90;;
21239;SDS011;10778;48.962;9.018;2023-07-16T13:21:37;3.78;;;1.90;;
21239;SDS011;10778;48.962;9.018;2023-07-16T13:24:03;3.33;;;1.70;;
21239;SDS011;10778;48.962;9.018;2023-07-16T13:26:29;4.32;;;1.70;;
21239;SDS011;10778;48.962;9.018;2023-07-16T13:28:55;5.57;;;2.20;;
21239;SDS011;10778;48.962;9.018;2023-07-16T13:31:21;3.17;;;1.80;;
21239;SDS011;10778;48.962;9.018;2023-07-16T13:33:47;4.05;;;1.88;;
21239;SDS011;10778;48.962;9.018;2023-07-16T13:36:13;4.03;;;2.00;;
21239;SDS011;10778;48.962;9.018;2023-07-16T13:38:39;3.72;;;2.00;;
21239;SDS011;10778;48.962;9.018;2023-07-16T13:41:05;3.30;;;1.92;;
21239;SDS011;10778;48.962;9.018;2023-07-16T13:43:31;6.78;;;3.25;;
21239;SDS011;10778;48.962;9.018;2023-07-16T13:45:57;5.85;;;3.15;;
21239;SDS011;10778;48.962;9.018;2023-07-16T13:48:23;5.47;;;2.40;;
21239;SDS011;10778;48.962;9.018;2023-07-16T13:50:49;4.80;;;2.50;;
21239;SDS011;10778;48.962;9.018;2023-07-16T13:53:15;4.57;;;2.60;;
21239;SDS011;10778;48.962;9.018;2023-07-16T13:55:41;5.28;;;2.60;;
21239;SDS011;10778;48.962;9.018;2023-07-16T13:58:07;4.75;;;2.38;;
21239;SDS011;10778;48.962;9.018;2023-07-16T14:00:33;5.43;;;1.98;;
21239;SDS011;10778;48.962;9.018;2023-07-16T14:02:59;4.68;;;2.15;;
21239;SDS011;10778;48.962;9.018;2023-07-16T14:05:25;7.30;;;2.25;;
21239;SDS011;10778;48.962;9.018;2023-07-16T14:07:51;5.82;;;2.33;;
21239;SDS011;10778;48.962;9.018;2023-07-16T14:10:19;4.90;;;2.10;;
21239;SDS011;10778;48.962;9.018;2023-07-16T14:12:45;6.57;;;2.20;;
21239;SDS011;10778;48.962;9.018;2023-07-16T14:15:11;5.60;;;3.00;;
21239;SDS011;10778;48.962;9.018;2023-07-16T14:17:37;4.28;;;2.30;;
21239;SDS011;10778;48.962;9.018;2023-07-16T14:20:03;3.92;;;2.00;;
21239;SDS011;10778;48.962;9.018;2023-07-16T14:22:30;5.93;;;2.38;;
21239;SDS011;10778;48.962;9.018;2023-07-16T14:24:56;3.55;;;2.15;;
21239;SDS011;10778;48.962;9.018;2023-07-16T14:27:22;4.90;;;2.13;;
21239;SDS011;10778;48.962;9.018;2023-07-16T14:29:48;3.53;;;1.92;;
21239;SDS011;10778;48.962;9.018;2023-07-16T14:32:14;6.50;;;2.83;;
21239;SDS011;10778;48.962;9.018;2023-07-16T14:34:40;5.30;;;2.40;;
21239;SDS011;10778;48.962;9.018;2023-07-16T14:37:07;5.60;;;2.97;;
21239;SDS011;10778;48.962;9.018;2023-07-16T14:39:33;3.92;;;2.47;;
21239;SDS011;10778;48.962;9.018;2023-07-16T14:41:59;4.70;;;2.40;;
21239;SDS011;10778;48.962;9.018;2023-07-16T14:44:29;5.15;;;2.72;;
21239;SDS011;10778;48.962;9.018;2023-07-16T14:46:55;4.82;;;2.33;;
21239;SDS011;10778;48.962;9.018;2023-07-16T14:49:21;5.45;;;2.40;;
21239;SDS011;10778;48.962;9.018;2023-07-16T14:51:47;4.78;;;2.13;;
21239;SDS011;10778;48.962;9.018;2023-07-16T14:54:13;7.30;;;2.70;;
21239;SDS011;10778;48.962;9.018;2023-07-16T14:56:39;6.47;;;2.40;;
21239;SDS011;10778;48.962;9.018;2023-07-16T14:59:05;4.03;;;2.28;;
21239;SDS011;10778;48.962;9.018;2023-07-16T15:01:31;6.28;;;2.70;;
21239;SDS011;10778;48.962;9.018;2023-07-16T15:03:57;6.97;;;2.60;;